Time;durP1;ratioP1;P1;durP2;ratioP2;P2;SDS_P1;SDS_P2;PMS_P1;PMS_P2;Temp;Humidity;BMP_temperature;BMP_pressure;BME280_temperature;BME280_humidity;BME280_pressure;Samples;Min_cycle;Max_cycle;Signal;HPM_P1;HPM_P2
2022/05/22 00:01:59;;;;;;;3.47;1.98;;;21.90;53.10;;;;;;4965642;28;20062;-63
2022/05/22 00:04:25;;;;;;;2.78;1.80;;;21.90;53.20;;;;;;4964557;28;20042;-63
2022/05/22 00:06:50;;;;;;;2.92;1.75;;;21.90;53.10;;;;;;4943332;28;20097;-63
2022/05/22 00:09:16;;;;;;;2.28;2.00;;;21.90;53.20;;;;;;4965392;28;20043;-63
2022/05/22 00:11:42;;;;;;;3.05;1.92;;;21.90;53.10;;;;;;4962668;28;20039;-63
2022/05/22 00:14:11;;;;;;;3.63;1.80;;;21.90;53.20;;;;;;4964902;28;20478;-63
2022/05/22 00:16:41;;;;;;;3.70;2.00;;;21.90;53.20;;;;;;4940383;28;20043;-63
2022/05/22 00:19:09;;;;;;;3.03;2.17;;;21.90;53.20;;;;;;4964564;28;20031;-63
2022/05/22 00:21:35;;;;;;;2.78;1.88;;;21.90;53.20;;;;;;4964201;28;20038;-63
2022/05/22 00:24:01;;;;;;;3.25;2.05;;;21.90;53.20;;;;;;4966366;28;20117;-63
2022/05/22 00:26:27;;;;;;;4.15;2.33;;;21.90;53.20;;;;;;4965969;28;20451;-63
2022/05/22 00:28:52;;;;;;;3.42;2.08;;;21.90;53.20;;;;;;4939306;28;20047;-64
2022/05/22 00:31:18;;;;;;;3.65;2.20;;;21.90;53.20;;;;;;4958639;28;20039;-63
2022/05/22 00:33:44;;;;;;;2.88;1.75;;;21.90;53.20;;;;;;4965302;28;20035;-63
2022/05/22 00:36:10;;;;;;;4.50;1.80;;;21.90;53.20;;;;;;4965756;28;20433;-63
2022/05/22 00:38:36;;;;;;;3.03;1.90;;;21.90;53.10;;;;;;4965211;28;20039;-63
2022/05/22 00:41:03;;;;;;;3.05;2.15;;;21.90;53.10;;;;;;4965951;28;20031;-63
2022/05/22 00:43:34;;;;;;;2.70;1.80;;;21.90;53.10;;;;;;4964077;28;20121;-62
2022/05/22 00:46:02;;;;;;;2.30;1.95;;;21.90;53.10;;;;;;4966529;28;20058;-63
2022/05/22 00:48:28;;;;;;;3.25;2.20;;;21.90;53.10;;;;;;4948064;28;20057;-63
2022/05/22 00:51:08;;;;;;;3.58;2.33;;;21.90;53.10;;;;;;4965457;28;20078;-63
2022/05/22 00:53:39;;;;;;;3.00;1.70;;;21.90;53.00;;;;;;4964289;28;20364;-63
2022/05/22 00:56:09;;;;;;;2.95;2.15;;;21.90;53.00;;;;;;4966182;28;20109;-62
2022/05/22 00:58:35;;;;;;;2.17;1.60;;;21.90;53.00;;;;;;4964856;28;20969;-64
2022/05/22 01:01:02;;;;;;;2.38;1.95;;;21.80;53.70;;;;;;4963724;28;20117;-62
2022/05/22 01:03:31;;;;;;;3.50;1.70;;;21.80;52.90;;;;;;4964467;28;20586;-63
2022/05/22 01:06:03;;;;;;;4.95;2.20;;;21.80;52.90;;;;;;4965322;28;20043;-64
2022/05/22 01:08:29;;;;;;;2.20;1.60;;;21.80;52.80;;;;;;4965333;28;20142;-63
2022/05/22 01:10:59;;;;;;;3.53;1.80;;;21.80;52.80;;;;;;4968588;28;20035;-63
2022/05/22 01:13:30;;;;;;;3.10;1.90;;;21.80;52.80;;;;;;4967656;28;20063;-63
2022/05/22 01:15:56;;;;;;;2.80;1.88;;;21.80;52.80;;;;;;4967138;28;20046;-63
2022/05/22 01:18:22;;;;;;;2.22;1.80;;;21.80;52.70;;;;;;4967829;28;20109;-63
2022/05/22 01:20:51;;;;;;;3.22;2.00;;;21.80;52.70;;;;;;4967523;28;20133;-63
2022/05/22 01:23:18;;;;;;;2.50;1.70;;;21.80;52.70;;;;;;4968481;28;20038;-63
2022/05/22 01:25:44;;;;;;;3.47;1.90;;;21.80;52.70;;;;;;4967883;28;20050;-63
2022/05/22 01:28:12;;;;;;;3.47;1.80;;;21.80;52.60;;;;;;4965809;28;20035;-63
2022/05/22 01:30:38;;;;;;;2.72;1.80;;;21.80;52.50;;;;;;4966337;28;20130;-63
2022/05/22 01:33:04;;;;;;;1.95;1.73;;;21.80;52.50;;;;;;4968293;28;20051;-63
2022/05/22 01:35:31;;;;;;;3.78;1.83;;;21.80;52.50;;;;;;4968294;28;20061;-63
2022/05/22 01:37:58;;;;;;;2.00;1.80;;;21.80;52.50;;;;;;4968914;28;20053;-63
2022/05/22 01:40:24;;;;;;;3.47;2.10;;;21.80;52.50;;;;;;4967589;28;20031;-63
2022/05/22 01:42:50;;;;;;;2.25;1.77;;;21.80;52.40;;;;;;4968152;28;20153;-63
2022/05/22 01:45:20;;;;;;;2.45;1.90;;;21.80;52.40;;;;;;4967093;28;20038;-63
2022/05/22 01:47:46;;;;;;;3.35;2.03;;;21.80;52.30;;;;;;4946037;29;20054;-64
2022/05/22 01:50:12;;;;;;;2.20;1.70;;;21.70;52.30;;;;;;4966016;28;20395;-63
2022/05/22 01:52:38;;;;;;;2.47;1.83;;;21.70;52.20;;;;;;4966961;28;20408;-63
2022/05/22 01:55:05;;;;;;;2.28;1.70;;;21.80;52.20;;;;;;4960843;28;20046;-63
2022/05/22 01:57:31;;;;;;;2.13;1.70;;;21.70;52.20;;;;;;4966735;28;20094;-63
2022/05/22 01:59:57;;;;;;;1.98;1.63;;;21.70;52.20;;;;;;4967467;28;20484;-64
2022/05/22 02:02:22;;;;;;;2.60;1.77;;;21.70;52.20;;;;;;4960210;28;21016;-64
2022/05/22 02:04:48;;;;;;;1.75;1.45;;;21.70;52.20;;;;;;4962562;28;20169;-63
2022/05/22 02:09:57;;;;;;;2.50;1.88;;;21.70;52.10;;;;;;4968732;28;20130;-63
2022/05/22 02:12:23;;;;;;;2.53;1.60;;;21.70;52.10;;;;;;4967188;28;20137;-63
2022/05/22 02:14:49;;;;;;;1.80;1.60;;;21.70;52.00;;;;;;4966926;28;20058;-64
2022/05/22 02:17:15;;;;;;;2.53;1.55;;;21.70;52.00;;;;;;4967050;28;20399;-63
2022/05/22 02:19:40;;;;;;;3.58;1.67;;;21.70;52.00;;;;;;4965989;28;20083;-64
2022/05/22 02:22:06;;;;;;;1.92;1.63;;;21.70;51.90;;;;;;4966391;28;20054;-63
2022/05/22 02:24:32;;;;;;;2.50;1.80;;;21.70;51.90;;;;;;4950090;28;20093;-63
2022/05/22 02:26:57;;;;;;;2.80;1.60;;;21.70;51.80;;;;;;4967276;28;20081;-63
2022/05/22 02:29:24;;;;;;;2.47;1.48;;;21.70;51.80;;;;;;4966970;28;20038;-64
2022/05/22 02:31:49;;;;;;;2.47;1.50;;;21.70;51.80;;;;;;4966846;28;20047;-62
2022/05/22 02:34:15;;;;;;;2.65;1.67;;;21.70;51.80;;;;;;4966129;28;20047;-63
2022/05/22 02:36:41;;;;;;;1.75;1.63;;;21.70;51.80;;;;;;4965227;28;20069;-63
2022/05/22 02:39:06;;;;;;;2.45;1.58;;;21.70;51.70;;;;;;4967278;28;20038;-63
2022/05/22 02:41:32;;;;;;;2.35;1.40;;;21.70;51.70;;;;;;4965522;28;20035;-63
2022/05/22 02:43:57;;;;;;;2.25;1.70;;;21.60;51.60;;;;;;4966763;28;20384;-63
2022/05/22 02:46:24;;;;;;;3.97;1.90;;;21.70;51.60;;;;;;4966983;28;20045;-63
2022/05/22 02:48:50;;;;;;;2.10;1.50;;;21.70;51.60;;;;;;4966543;28;20088;-62
2022/05/22 02:51:18;;;;;;;2.35;1.40;;;21.60;51.50;;;;;;4965834;28;20039;-63
2022/05/22 02:53:44;;;;;;;2.40;1.63;;;21.60;51.50;;;;;;4965868;28;20043;-62
2022/05/22 02:56:16;;;;;;;2.22;1.40;;;21.60;51.40;;;;;;4966390;28;20042;-63
2022/05/22 02:58:42;;;;;;;2.05;1.50;;;21.60;51.40;;;;;;4966320;28;20035;-63
2022/05/22 03:01:07;;;;;;;1.40;1.20;;;21.60;51.40;;;;;;4967477;28;20043;-63
2022/05/22 03:03:33;;;;;;;2.20;1.45;;;21.60;51.30;;;;;;4967101;28;20433;-63
2022/05/22 03:08:43;;;;;;;2.65;1.50;;;21.60;51.30;;;;;;4965205;28;20057;-63
2022/05/22 03:11:09;;;;;;;2.60;1.50;;;21.60;51.30;;;;;;4967692;28;20479;-63
2022/05/22 03:13:34;;;;;;;2.38;1.60;;;21.60;51.20;;;;;;4965440;28;20510;-63
2022/05/22 03:16:00;;;;;;;2.80;1.50;;;21.60;51.20;;;;;;4967741;28;20057;-62
2022/05/22 03:18:26;;;;;;;2.58;1.48;;;21.60;51.10;;;;;;4964741;28;20569;-63
2022/05/22 03:20:52;;;;;;;1.80;1.25;;;21.60;51.10;;;;;;4966019;28;20141;-63
2022/05/22 03:23:18;;;;;;;2.20;1.45;;;21.60;51.10;;;;;;4965765;28;20230;-63
2022/05/22 03:25:49;;;;;;;1.80;1.30;;;21.60;51.10;;;;;;4966374;28;20038;-62
2022/05/22 03:28:16;;;;;;;1.38;1.27;;;21.60;51.00;;;;;;4965697;28;20081;-63
2022/05/22 03:30:42;;;;;;;2.42;1.27;;;21.60;51.00;;;;;;4965424;28;20499;-63
2022/05/22 03:33:07;;;;;;;2.20;1.58;;;21.60;50.90;;;;;;4966166;28;20137;-63
2022/05/22 03:35:33;;;;;;;1.63;1.23;;;21.60;51.00;;;;;;4965854;28;20054;-63
2022/05/22 03:38:00;;;;;;;1.85;1.40;;;21.50;50.90;;;;;;4964917;28;20051;-63
2022/05/22 03:40:26;;;;;;;1.77;1.10;;;21.50;50.80;;;;;;4965774;28;20042;-63
2022/05/22 03:42:51;;;;;;;2.15;1.40;;;21.50;50.80;;;;;;4965802;28;20034;-63
2022/05/22 03:45:17;;;;;;;2.05;1.13;;;21.50;50.90;;;;;;4965262;28;20042;-64
2022/05/22 03:47:43;;;;;;;1.80;1.17;;;21.60;51.30;;;;;;4965893;28;20062;-63
2022/05/22 03:50:11;;;;;;;1.92;1.17;;;21.50;50.80;;;;;;4966283;28;20502;-63
2022/05/22 03:52:42;;;;;;;2.92;1.45;;;21.50;50.70;;;;;;4965476;28;20042;-63
2022/05/22 03:55:10;;;;;;;1.60;1.13;;;21.50;50.70;;;;;;4966453;28;20042;-63
2022/05/22 03:57:36;;;;;;;1.38;1.13;;;21.50;50.70;;;;;;4966054;28;20463;-62
2022/05/22 04:00:10;;;;;;;2.05;1.30;;;21.50;50.70;;;;;;4966045;28;20047;-63
2022/05/22 04:02:36;;;;;;;1.70;1.17;;;21.50;50.70;;;;;;4960580;28;20046;-62
2022/05/22 04:05:08;;;;;;;3.20;1.45;;;21.50;50.60;;;;;;4962493;28;20039;-64
2022/05/22 04:07:38;;;;;;;2.50;1.45;;;21.50;50.60;;;;;;4964501;28;20054;-63
2022/05/22 04:10:04;;;;;;;2.03;1.20;;;21.50;50.60;;;;;;4965434;28;20048;-64
2022/05/22 04:12:30;;;;;;;3.20;1.38;;;21.50;50.70;;;;;;4962114;28;20065;-64
2022/05/22 04:14:55;;;;;;;1.70;1.10;;;21.50;50.70;;;;;;4965256;28;20394;-64
2022/05/22 04:17:21;;;;;;;1.20;1.10;;;21.50;50.60;;;;;;4964243;28;20501;-64
2022/05/22 04:19:46;;;;;;;2.47;1.30;;;21.50;50.60;;;;;;4964037;28;20053;-65
2022/05/22 04:22:12;;;;;;;2.53;1.30;;;21.50;50.70;;;;;;4965483;28;20582;-64
2022/05/22 04:27:22;;;;;;;2.10;1.25;;;21.50;50.60;;;;;;4966093;28;20117;-64
2022/05/22 04:29:47;;;;;;;1.38;1.20;;;21.50;50.70;;;;;;4956192;28;20463;-64
2022/05/22 04:32:13;;;;;;;1.67;1.45;;;21.40;50.60;;;;;;4964445;28;20050;-64
2022/05/22 04:34:39;;;;;;;1.73;1.27;;;21.40;50.60;;;;;;4964131;28;20483;-64
2022/05/22 04:37:05;;;;;;;1.77;1.30;;;21.40;50.60;;;;;;4965907;28;20043;-64
2022/05/22 04:39:30;;;;;;;2.05;1.40;;;21.40;50.60;;;;;;4962668;28;20054;-63
2022/05/22 04:41:56;;;;;;;1.95;1.23;;;21.40;50.60;;;;;;4963681;28;20039;-64
2022/05/22 04:44:21;;;;;;;4.03;1.75;;;21.40;50.50;;;;;;4965519;28;20043;-64
2022/05/22 04:46:47;;;;;;;3.70;1.33;;;21.40;50.60;;;;;;4950327;28;20050;-64
2022/05/22 04:49:13;;;;;;;2.15;1.42;;;21.40;50.60;;;;;;4968592;28;20137;-64
2022/05/22 04:51:38;;;;;;;2.40;1.48;;;21.40;50.60;;;;;;4968532;28;20046;-64
2022/05/22 04:54:04;;;;;;;2.08;1.33;;;21.40;50.50;;;;;;4969009;28;20058;-64
2022/05/22 04:56:30;;;;;;;2.78;1.52;;;21.40;50.60;;;;;;4968665;28;20623;-64
2022/05/22 04:58:56;;;;;;;3.40;1.40;;;21.40;50.60;;;;;;4961094;28;20153;-64
2022/05/22 05:01:21;;;;;;;2.20;1.70;;;21.40;50.60;;;;;;4968331;28;20075;-62
2022/05/22 05:03:47;;;;;;;3.88;1.40;;;21.40;50.60;;;;;;4967549;28;20180;-64
2022/05/22 05:06:13;;;;;;;2.63;1.45;;;21.40;50.60;;;;;;4970201;28;20166;-64
2022/05/22 05:08:38;;;;;;;3.15;1.20;;;21.50;50.60;;;;;;4969311;28;20130;-63
2022/05/22 05:11:04;;;;;;;3.42;1.40;;;21.50;50.60;;;;;;4968157;28;20038;-64
2022/05/22 05:13:30;;;;;;;2.00;1.30;;;21.50;50.60;;;;;;4967735;28;20073;-64
2022/05/22 05:16:04;;;;;;;1.67;1.50;;;21.50;50.60;;;;;;4969292;28;20051;-64
2022/05/22 05:18:30;;;;;;;1.77;1.30;;;21.50;50.60;;;;;;4967701;28;20074;-65
2022/05/22 05:21:00;;;;;;;1.67;1.35;;;21.50;50.70;;;;;;4969012;28;20057;-65
2022/05/22 05:23:25;;;;;;;3.15;1.60;;;21.50;50.70;;;;;;4966964;28;20035;-64
2022/05/22 05:25:51;;;;;;;2.47;1.40;;;21.50;50.70;;;;;;4970286;28;20514;-63
2022/05/22 05:28:17;;;;;;;2.45;1.40;;;21.50;50.70;;;;;;4966732;28;20089;-64
2022/05/22 05:30:42;;;;;;;3.30;1.70;;;21.50;50.70;;;;;;4960882;28;20054;-65
2022/05/22 05:33:08;;;;;;;2.88;1.63;;;21.50;50.70;;;;;;4968488;28;20039;-64
2022/05/22 05:35:34;;;;;;;2.58;1.58;;;21.50;50.70;;;;;;4967684;28;20046;-64
2022/05/22 05:37:59;;;;;;;2.88;1.60;;;21.50;50.80;;;;;;4968508;28;20057;-63
2022/05/22 05:40:25;;;;;;;2.17;1.20;;;21.50;50.80;;;;;;4968209;28;20042;-64
2022/05/22 05:42:51;;;;;;;3.40;1.08;;;21.50;50.90;;;;;;4967680;28;20046;-64
2022/05/22 05:45:20;;;;;;;2.03;1.10;;;21.50;50.90;;;;;;4967127;28;20066;-63
2022/05/22 05:47:47;;;;;;;2.05;1.27;;;21.50;51.00;;;;;;4965600;28;20038;-66
2022/05/22 05:50:21;;;;;;;2.45;1.05;;;21.50;50.80;;;;;;4966564;28;20039;-62
2022/05/22 05:52:50;;;;;;;1.50;1.20;;;21.50;51.10;;;;;;4968526;28;20093;-63
2022/05/22 05:55:16;;;;;;;2.45;1.42;;;21.50;51.30;;;;;;4965333;28;20710;-66
2022/05/22 05:57:42;;;;;;;3.97;1.55;;;21.50;51.40;;;;;;4965579;28;20170;-64
2022/05/22 06:00:10;;;;;;;2.30;1.40;;;21.60;51.60;;;;;;4966998;28;20031;-65
2022/05/22 06:02:36;;;;;;;2.90;1.33;;;21.60;51.70;;;;;;4966235;28;20047;-64
2022/05/22 06:05:02;;;;;;;2.13;1.10;;;21.60;51.70;;;;;;4966719;28;20086;-64
2022/05/22 06:07:28;;;;;;;2.30;1.23;;;21.60;51.80;;;;;;4959523;28;20050;-65
2022/05/22 06:09:54;;;;;;;3.15;1.65;;;21.60;51.70;;;;;;4965786;28;20046;-64
2022/05/22 06:12:19;;;;;;;1.98;1.30;;;21.60;51.80;;;;;;4959628;28;20446;-65
2022/05/22 06:14:46;;;;;;;3.25;1.52;;;21.60;51.80;;;;;;4958108;28;20406;-64
2022/05/22 06:17:13;;;;;;;2.33;1.48;;;21.60;51.80;;;;;;4964436;28;20049;-65
2022/05/22 06:19:54;;;;;;;3.63;1.75;;;21.60;51.90;;;;;;4964380;28;20432;-64
2022/05/22 06:22:20;;;;;;;2.28;1.30;;;21.60;51.90;;;;;;4965152;28;20078;-65
2022/05/22 06:24:46;;;;;;;1.85;1.30;;;21.60;52.00;;;;;;4964654;28;20074;-65
2022/05/22 06:27:12;;;;;;;3.13;1.58;;;21.60;51.90;;;;;;4965775;28;20374;-66
2022/05/22 06:29:38;;;;;;;5.40;2.10;;;21.60;51.90;;;;;;4965079;28;20395;-65
2022/05/22 06:32:05;;;;;;;3.78;1.42;;;21.60;51.90;;;;;;4962979;28;20039;-64
2022/05/22 06:34:35;;;;;;;4.03;1.88;;;21.60;51.80;;;;;;4964252;28;20105;-66
2022/05/22 06:37:04;;;;;;;2.88;1.60;;;21.60;51.70;;;;;;4957230;28;20063;-64
2022/05/22 06:42:16;;;;;;;3.10;1.50;;;21.60;51.80;;;;;;4964015;28;20066;-65
2022/05/22 06:44:42;;;;;;;5.18;1.30;;;21.60;52.00;;;;;;4963941;28;20054;-65
2022/05/22 06:47:08;;;;;;;4.13;1.52;;;21.60;52.00;;;;;;4965062;28;20043;-61
2022/05/22 06:49:33;;;;;;;3.58;1.60;;;21.60;52.10;;;;;;4963221;28;20046;-65
2022/05/22 06:51:59;;;;;;;2.03;1.40;;;21.60;52.10;;;;;;4964046;28;20046;-62
2022/05/22 06:54:24;;;;;;;3.53;1.60;;;21.70;52.20;;;;;;4963801;28;20491;-66
2022/05/22 06:56:50;;;;;;;4.28;1.67;;;21.70;52.20;;;;;;4957092;28;20526;-65
2022/05/22 06:59:16;;;;;;;3.63;1.63;;;21.60;52.20;;;;;;4963539;28;20148;-64
2022/05/22 07:01:42;;;;;;;4.57;1.83;;;21.60;52.20;;;;;;4965892;28;20442;-65
2022/05/22 07:04:07;;;;;;;4.10;1.63;;;21.70;52.10;;;;;;4967118;28;20399;-62
2022/05/22 07:06:33;;;;;;;4.10;1.67;;;21.70;52.10;;;;;;4962398;28;20047;-63
2022/05/22 07:08:58;;;;;;;3.47;1.85;;;21.60;52.10;;;;;;4965885;28;20058;-65
2022/05/22 07:11:39;;;;;;;3.67;1.65;;;21.60;52.10;;;;;;4965763;28;20069;-63
2022/05/22 07:14:06;;;;;;;4.95;1.63;;;21.60;52.10;;;;;;4964801;28;20038;-67
2022/05/22 07:16:31;;;;;;;4.90;1.45;;;21.60;52.10;;;;;;4965892;28;20047;-68
2022/05/22 07:18:57;;;;;;;5.22;2.10;;;21.60;52.10;;;;;;4967037;28;20050;-69
2022/05/22 07:21:24;;;;;;;2.75;1.55;;;21.70;52.20;;;;;;4965335;28;20471;-68
2022/05/22 07:23:50;;;;;;;4.90;1.60;;;21.70;52.20;;;;;;4963427;28;20102;-66
2022/05/22 07:26:18;;;;;;;3.58;1.60;;;21.70;52.20;;;;;;4966430;28;20076;-65
2022/05/22 07:28:44;;;;;;;4.40;1.48;;;21.70;52.10;;;;;;4967441;28;20053;-65
2022/05/22 07:31:23;;;;;;;3.05;1.65;;;21.70;52.20;;;;;;4966788;28;20039;-63
2022/05/22 07:33:49;;;;;;;3.13;1.60;;;21.70;52.10;;;;;;4967761;28;20089;-68
2022/05/22 07:36:16;;;;;;;3.97;1.63;;;21.70;52.10;;;;;;4965031;28;20055;-63
2022/05/22 07:38:41;;;;;;;4.65;2.03;;;21.70;52.10;;;;;;4950176;28;20146;-65
2022/05/22 07:41:07;;;;;;;3.67;1.95;;;21.70;52.10;;;;;;4966449;28;20098;-66
2022/05/22 07:43:33;;;;;;;4.35;1.80;;;21.70;52.10;;;;;;4964454;28;20038;-63
2022/05/22 07:45:58;;;;;;;3.90;1.88;;;21.70;51.90;;;;;;4963849;28;20169;-63
2022/05/22 07:48:24;;;;;;;7.45;2.33;;;21.70;51.50;;;;;;4960883;28;20091;-67
2022/05/22 07:50:57;;;;;;;11.13;3.00;;;21.70;51.80;;;;;;4950291;28;20117;-67
2022/05/22 07:53:23;;;;;;;11.20;3.65;;;21.70;52.00;;;;;;4958733;28;20039;-62
2022/05/22 07:55:51;;;;;;;10.93;3.08;;;21.70;52.20;;;;;;4957067;28;20639;-65
2022/05/22 07:58:18;;;;;;;6.53;2.25;;;21.70;52.40;;;;;;4959791;28;20057;-65
2022/05/22 08:00:44;;;;;;;8.25;2.92;;;21.70;52.20;;;;;;4961653;28;20047;-63
2022/05/22 08:03:12;;;;;;;6.93;2.15;;;21.70;51.30;;;;;;4959350;28;20047;-67
2022/05/22 08:05:37;;;;;;;7.55;2.55;;;21.70;50.80;;;;;;4956273;28;20031;-66
2022/05/22 08:08:04;;;;;;;5.35;2.22;;;21.60;51.10;;;;;;4957857;28;20057;-65
2022/05/22 08:10:30;;;;;;;5.70;1.60;;;21.70;51.20;;;;;;4937542;28;20078;-68
2022/05/22 08:12:55;;;;;;;5.65;2.30;;;21.60;51.40;;;;;;4954344;28;20082;-64
2022/05/22 08:15:23;;;;;;;6.32;2.38;;;21.60;51.70;;;;;;4962699;28;20034;-67
2022/05/22 08:17:49;;;;;;;6.30;1.98;;;21.60;51.30;;;;;;4932701;28;20146;-66
2022/05/22 08:20:20;;;;;;;5.28;2.22;;;21.60;51.10;;;;;;4962975;28;20488;-64
2022/05/22 08:22:46;;;;;;;;;;;21.60;50.20;;;;;;4970518;28;20058;-68
2022/05/22 08:25:15;;;;;;;9.95;2.65;;;21.50;50.10;;;;;;4969479;28;19997;-68
2022/05/22 08:27:41;;;;;;;8.05;2.70;;;21.50;50.40;;;;;;4969908;28;20078;-68
2022/05/22 08:30:09;;;;;;;8.88;3.15;;;21.50;50.30;;;;;;4969667;28;20128;-62
2022/05/22 08:32:39;;;;;;;7.20;3.30;;;21.50;50.20;;;;;;4960016;28;20109;-68
2022/05/22 08:35:06;;;;;;;9.68;3.78;;;21.60;50.30;;;;;;4969671;28;20047;-65
2022/05/22 08:37:34;;;;;;;6.63;3.25;;;21.60;50.40;;;;;;4964391;28;20043;-67
2022/05/22 08:39:59;;;;;;;6.65;3.05;;;21.60;50.30;;;;;;4971841;28;20039;-67
2022/05/22 08:42:44;;;;;;;5.65;2.50;;;21.60;50.10;;;;;;4952749;28;20193;-66
2022/05/22 08:45:36;;;;;;;7.30;2.72;;;21.60;49.50;;;;;;4971787;28;20108;-67
2022/05/22 08:48:25;;;;;;;6.40;2.33;;;21.50;49.70;;;;;;4971339;28;20023;-67
2022/05/22 08:50:56;;;;;;;7.50;2.92;;;21.50;49.30;;;;;;4969039;28;20142;-65
2022/05/22 08:53:25;;;;;;;;;;;21.50;49.40;;;;;;4971608;28;20042;-66
2022/05/22 08:58:57;;;;;;;6.43;2.45;;;21.40;49.40;;;;;;4970460;28;20050;-64
2022/05/22 09:01:59;;;;;;;6.70;2.33;;;21.40;49.70;;;;;;4969065;28;20031;-65
2022/05/22 09:04:38;;;;;;;4.82;2.30;;;21.40;49.80;;;;;;4970704;28;20031;-65
2022/05/22 09:07:11;;;;;;;5.95;2.17;;;21.40;49.20;;;;;;4971312;28;20154;-66
2022/05/22 09:09:40;;;;;;;3.75;1.67;;;21.40;49.10;;;;;;4970391;28;20070;-65
2022/05/22 09:12:28;;;;;;;4.80;1.77;;;21.50;48.80;;;;;;4970657;28;20045;-66
2022/05/22 09:15:21;;;;;;;5.65;1.75;;;21.40;48.60;;;;;;4969721;28;20113;-64
2022/05/22 09:17:57;;;;;;;5.03;1.83;;;21.40;48.80;;;;;;4971163;28;20039;-65
2022/05/22 09:20:46;;;;;;;5.63;1.85;;;21.40;48.80;;;;;;4970477;28;20130;-65
2022/05/22 09:23:42;;;;;;;5.45;1.73;;;21.40;48.50;;;;;;4940788;28;20054;-61
2022/05/22 09:26:23;;;;;;;7.38;1.58;;;21.40;48.80;;;;;;4969994;28;20121;-66
2022/05/22 09:28:48;;;;;;;5.72;1.75;;;21.40;48.70;;;;;;4969779;28;20039;-66
2022/05/22 09:31:22;;;;;;;5.47;1.90;;;21.40;48.90;;;;;;4968754;28;20058;-63
2022/05/22 09:34:18;;;;;;;3.20;1.60;;;21.40;48.80;;;;;;4970529;28;20499;-64
2022/05/22 09:36:55;;;;;;;5.78;2.05;;;21.40;48.90;;;;;;4970181;28;20445;-65
2022/05/22 09:39:36;;;;;;;3.90;1.45;;;21.40;48.90;;;;;;4968828;28;20069;-65
2022/05/22 09:42:28;;;;;;;5.55;2.00;;;21.40;49.00;;;;;;4949654;28;20542;-62
2022/05/22 09:44:59;;;;;;;2.88;1.20;;;21.40;48.90;;;;;;4965590;28;20474;-64
2022/05/22 09:47:48;;;;;;;4.22;1.42;;;21.40;49.00;;;;;;4966954;28;20157;-64
2022/05/22 09:50:27;;;;;;;4.72;1.60;;;21.40;49.10;;;;;;4950299;28;20053;-66
2022/05/22 09:53:12;;;;;;;5.93;1.92;;;21.40;49.30;;;;;;4967847;28;20049;-65
2022/05/22 09:55:50;;;;;;;4.50;1.42;;;21.40;48.90;;;;;;4966256;28;20409;-65
2022/05/22 09:58:36;;;;;;;4.72;1.52;;;21.40;49.00;;;;;;4968026;28;20094;-66
2022/05/22 10:01:14;;;;;;;4.63;1.40;;;21.40;49.10;;;;;;4967606;28;20070;-65
2022/05/22 10:04:13;;;;;;;4.72;1.35;;;21.40;49.20;;;;;;4966719;28;20105;-63
2022/05/22 10:06:50;;;;;;;4.97;1.30;;;21.40;49.30;;;;;;4960780;28;20038;-65
2022/05/22 10:09:24;;;;;;;1.77;1.30;;;21.40;49.40;;;;;;4967442;28;20127;-64
2022/05/22 10:12:23;;;;;;;4.38;1.67;;;21.40;49.40;;;;;;4968072;28;20459;-64
2022/05/22 10:15:07;;;;;;;3.50;1.38;;;21.40;49.40;;;;;;4967290;28;20053;-66
2022/05/22 10:17:53;;;;;;;3.85;1.42;;;21.40;49.50;;;;;;4966929;28;20078;-63
2022/05/22 10:20:25;;;;;;;3.20;1.40;;;21.40;49.50;;;;;;4966146;28;20034;-64
2022/05/22 10:23:16;;;;;;;4.63;1.20;;;21.40;49.60;;;;;;4966693;28;20133;-67
2022/05/22 10:25:51;;;;;;;;;;;21.40;49.40;;;;;;4966120;28;20039;-63
2022/05/22 10:28:21;;;;;;;2.90;1.30;;;21.40;49.60;;;;;;4964406;28;20001;-64
2022/05/22 10:30:59;;;;;;;3.07;1.20;;;21.40;49.70;;;;;;4948272;28;20137;-64
2022/05/22 10:34:01;;;;;;;3.80;1.33;;;21.40;49.70;;;;;;4966473;28;20062;-66
2022/05/22 10:36:41;;;;;;;3.35;1.33;;;21.40;49.80;;;;;;4965591;28;20066;-63
2022/05/22 10:39:12;;;;;;;5.03;1.33;;;21.40;49.80;;;;;;4964500;28;21144;-66
2022/05/22 10:44:31;;;;;;;4.43;1.40;;;21.50;50.10;;;;;;4965606;28;19953;-66
2022/05/22 10:47:01;;;;;;;3.75;1.33;;;21.40;50.10;;;;;;4958785;28;20039;-64
2022/05/22 10:49:40;;;;;;;3.30;1.40;;;21.50;50.20;;;;;;4947324;28;20153;-62
2022/05/22 10:52:08;;;;;;;3.35;1.10;;;21.50;50.20;;;;;;4965665;28;20042;-66
2022/05/22 10:54:44;;;;;;;3.88;1.20;;;21.50;50.20;;;;;;4947930;28;20086;-66
2022/05/22 10:57:11;;;;;;;3.50;1.35;;;21.50;50.30;;;;;;4964032;28;20101;-65
2022/05/22 10:59:37;;;;;;;3.60;1.27;;;21.50;50.30;;;;;;4955500;28;20039;-65
2022/05/22 11:02:04;;;;;;;4.55;1.30;;;21.50;50.30;;;;;;4962156;28;20042;-62
2022/05/22 11:04:37;;;;;;;3.72;1.13;;;21.50;50.30;;;;;;4955360;28;20085;-66
2022/05/22 11:07:04;;;;;;;2.67;1.20;;;21.50;50.30;;;;;;4964786;28;20543;-66
2022/05/22 11:09:46;;;;;;;3.92;1.10;;;21.50;50.40;;;;;;4961915;28;20050;-65
2022/05/22 11:12:15;;;;;;;4.30;1.20;;;21.50;50.30;;;;;;4963650;28;20134;-65
2022/05/22 11:14:41;;;;;;;4.30;1.00;;;21.50;50.40;;;;;;4967569;28;20161;-64
2022/05/22 11:17:19;;;;;;;3.30;1.40;;;21.50;50.30;;;;;;4968079;28;20104;-62
2022/05/22 11:19:52;;;;;;;2.05;1.08;;;21.50;50.20;;;;;;4968267;28;20129;-66
2022/05/22 11:22:36;;;;;;;3.65;1.00;;;21.50;50.20;;;;;;4965831;28;20046;-67
2022/05/22 11:25:34;;;;;;;3.88;1.20;;;21.50;50.10;;;;;;4967399;28;20125;-65
2022/05/22 11:28:11;;;;;;;3.28;1.65;;;21.50;50.00;;;;;;4967573;28;20145;-66
2022/05/22 11:30:50;;;;;;;3.40;1.15;;;21.50;50.00;;;;;;4964935;28;20057;-65
2022/05/22 11:33:37;;;;;;;5.55;1.20;;;21.50;50.10;;;;;;4965461;28;20568;-65
2022/05/22 11:36:32;;;;;;;3.38;1.10;;;21.50;50.30;;;;;;4966858;28;20051;-61
2022/05/22 11:39:22;;;;;;;4.50;1.38;;;21.50;50.50;;;;;;4936930;28;20055;-65
2022/05/22 11:41:56;;;;;;;3.90;1.33;;;21.50;50.50;;;;;;4965667;28;20527;-63
2022/05/22 11:44:33;;;;;;;3.60;1.20;;;21.50;50.50;;;;;;4965485;28;20086;-63
2022/05/22 11:47:27;;;;;;;2.55;1.40;;;21.50;50.60;;;;;;4965547;28;20129;-65
2022/05/22 11:50:07;;;;;;;6.40;1.58;;;21.50;50.70;;;;;;4965383;28;20089;-64
2022/05/22 11:53:10;;;;;;;4.18;1.20;;;21.50;50.70;;;;;;4966305;28;20586;-64
2022/05/22 11:56:00;;;;;;;5.32;1.38;;;21.50;50.70;;;;;;4966288;28;20137;-64
2022/05/22 11:58:34;;;;;;;3.75;1.33;;;21.50;50.80;;;;;;4965893;28;20038;-64
2022/05/22 12:01:19;;;;;;;7.40;1.42;;;21.50;50.80;;;;;;4966518;28;20031;-63
2022/05/22 12:04:22;;;;;;;2.42;1.10;;;21.50;50.90;;;;;;4964088;28;20046;-64
2022/05/22 12:06:54;;;;;;;1.83;1.20;;;21.50;51.00;;;;;;4967164;28;20113;-64
2022/05/22 12:09:47;;;;;;;3.63;1.35;;;21.50;51.00;;;;;;4965126;28;20053;-64
2022/05/22 12:12:42;;;;;;;3.97;1.10;;;21.50;51.10;;;;;;4966503;28;20042;-64
2022/05/22 12:15:26;;;;;;;2.33;1.00;;;21.50;51.10;;;;;;4960286;28;20057;-64
2022/05/22 12:18:13;;;;;;;1.63;1.00;;;21.50;51.20;;;;;;4964803;28;20046;-64
2022/05/22 12:20:51;;;;;;;2.97;1.17;;;21.50;51.20;;;;;;4965535;28;20035;-65
2022/05/22 12:23:35;;;;;;;3.25;1.10;;;21.50;51.20;;;;;;4961492;28;20042;-64
2022/05/22 12:26:06;;;;;;;4.85;1.10;;;21.50;51.30;;;;;;4965990;28;20098;-65
2022/05/22 12:28:41;;;;;;;3.40;1.20;;;21.50;51.90;;;;;;4962621;28;20074;-63
2022/05/22 12:31:12;;;;;;;4.00;1.33;;;21.50;51.60;;;;;;4964601;28;20605;-61
2022/05/22 12:33:38;;;;;;;2.47;1.05;;;21.50;51.60;;;;;;4963329;28;20062;-62
2022/05/22 12:36:06;;;;;;;2.53;1.13;;;21.50;51.30;;;;;;4964133;28;20070;-65
2022/05/22 12:38:39;;;;;;;3.55;1.38;;;21.50;51.20;;;;;;4964992;28;20050;-64
2022/05/22 12:41:17;;;;;;;3.17;1.20;;;21.50;50.90;;;;;;4965318;28;20426;-64
2022/05/22 12:43:43;;;;;;;3.65;1.20;;;21.50;49.90;;;;;;4963969;28;20050;-64
2022/05/22 12:46:11;;;;;;;3.17;1.23;;;21.50;50.00;;;;;;4968516;28;20054;-65
2022/05/22 12:48:39;;;;;;;2.17;1.00;;;21.50;50.10;;;;;;4966207;28;20489;-63
2022/05/22 12:51:10;;;;;;;2.65;1.00;;;21.50;50.10;;;;;;4966543;28;20051;-64
2022/05/22 12:53:38;;;;;;;4.15;1.27;;;21.50;50.10;;;;;;4964963;28;20047;-65
2022/05/22 12:56:24;;;;;;;4.35;1.20;;;21.50;50.00;;;;;;4965217;28;20046;-64
2022/05/22 12:58:59;;;;;;;4.28;1.17;;;21.60;49.70;;;;;;4966202;28;20375;-65
2022/05/22 13:01:27;;;;;;;5.38;1.40;;;21.50;49.70;;;;;;4965667;28;20732;-65
2022/05/22 13:03:57;;;;;;;3.15;1.30;;;21.50;49.40;;;;;;4957082;28;20039;-65
2022/05/22 13:06:34;;;;;;;4.45;1.08;;;21.50;49.40;;;;;;4967972;28;20436;-61
2022/05/22 13:09:05;;;;;;;3.15;1.30;;;21.60;49.40;;;;;;4967592;28;20042;-62
2022/05/22 13:11:58;;;;;;;2.42;1.38;;;21.60;49.40;;;;;;4968465;28;20043;-65
2022/05/22 13:14:32;;;;;;;2.35;1.20;;;21.60;49.50;;;;;;4938813;28;20055;-64
2022/05/22 13:16:59;;;;;;;2.45;1.38;;;21.60;49.50;;;;;;4968881;28;20097;-64
2022/05/22 13:19:29;;;;;;;3.08;1.20;;;21.50;49.50;;;;;;4968582;28;20060;-64
2022/05/22 13:21:56;;;;;;;2.53;0.90;;;21.50;49.50;;;;;;4968870;28;20102;-62
2022/05/22 13:24:31;;;;;;;3.55;1.13;;;21.60;49.50;;;;;;4967261;28;20133;-62